sensor_id;sensor_type;location;lat;lon;timestamp;pressure;altitude;pressure_sealevel;temperature;humidity
71976;BME280;60680;52.182;5.398;2023-02-20T00:01:31;102526.91;;;5.54;100.00
71976;BME280;60680;52.182;5.398;2023-02-20T00:03:58;102520.84;;;5.55;100.00
71976;BME280;60680;52.182;5.398;2023-02-20T00:06:24;102517.41;;;5.54;100.00
71976;BME280;60680;52.182;5.398;2023-02-20T00:08:50;102524.31;;;5.54;100.00
71976;BME280;60680;52.182;5.398;2023-02-20T00:11:17;102535.53;;;5.53;100.00
71976;BME280;60680;52.182;5.398;2023-02-20T00:13:45;102526.03;;;5.51;100.00
71976;BME280;60680;52.182;5.398;2023-02-20T00:16:12;102529.47;;;5.52;100.00
71976;BME280;60680;52.182;5.398;2023-02-20T00:18:39;102524.31;;;5.52;100.00
71976;BME280;60680;52.182;5.398;2023-02-20T00:21:06;102507.13;;;5.53;100.00
71976;BME280;60680;52.182;5.398;2023-02-20T00:23:33;102497.63;;;5.50;100.00
71976;BME280;60680;52.182;5.398;2023-02-20T00:25:59;102501.09;;;5.49;100.00
71976;BME280;60680;52.182;5.398;2023-02-20T00:28:26;102498.50;;;5.49;100.00
71976;BME280;60680;52.182;5.398;2023-02-20T00:30:52;102496.78;;;5.48;100.00
71976;BME280;60680;52.182;5.398;2023-02-20T00:33:19;102484.75;;;5.48;100.00
71976;BME280;60680;52.182;5.398;2023-02-20T00:35:45;102479.59;;;5.48;100.00
71976;BME280;60680;52.182;5.398;2023-02-20T00:38:12;102475.28;;;5.49;100.00
71976;BME280;60680;52.182;5.398;2023-02-20T00:40:39;102477.00;;;5.47;100.00
71976;BME280;60680;52.182;5.398;2023-02-20T00:43:05;102476.16;;;5.45;100.00
71976;BME280;60680;52.182;5.398;2023-02-20T00:45:32;102468.41;;;5.43;100.00
71976;BME280;60680;52.182;5.398;2023-02-20T00:47:58;102456.34;;;5.41;100.00
71976;BME280;60680;52.182;5.398;2023-02-20T00:50:24;102459.78;;;5.41;100.00
71976;BME280;60680;52.182;5.398;2023-02-20T00:52:51;102459.78;;;5.40;100.00
71976;BME280;60680;52.182;5.398;2023-02-20T00:55:17;102464.94;;;5.40;100.00
71976;BME280;60680;52.182;5.398;2023-02-20T00:57:44;102450.34;;;5.39;100.00
71976;BME280;60680;52.182;5.398;2023-02-20T01:00:20;102446.06;;;5.38;100.00
71976;BME280;60680;52.182;5.398;2023-02-20T01:02:47;102443.47;;;5.36;100.00
71976;BME280;60680;52.182;5.398;2023-02-20T01:05:14;102443.47;;;5.35;100.00
71976;BME280;60680;52.182;5.398;2023-02-20T01:07:40;102422.81;;;5.33;100.00
71976;BME280;60680;52.182;5.398;2023-02-20T01:10:09;102417.66;;;5.33;100.00
71976;BME280;60680;52.182;5.398;2023-02-20T01:12:36;102406.47;;;5.31;100.00
71976;BME280;60680;52.182;5.398;2023-02-20T01:15:04;102391.88;;;5.30;100.00
71976;BME280;60680;52.182;5.398;2023-02-20T01:17:31;102387.56;;;5.29;100.00
71976;BME280;60680;52.182;5.398;2023-02-20T01:19:58;102378.97;;;5.27;100.00
71976;BME280;60680;52.182;5.398;2023-02-20T01:22:24;102382.41;;;5.24;100.00
71976;BME280;60680;52.182;5.398;2023-02-20T01:24:51;102385.03;;;5.23;100.00
71976;BME280;60680;52.182;5.398;2023-02-20T01:27:18;102392.75;;;5.23;100.00
71976;BME280;60680;52.182;5.398;2023-02-20T01:29:44;102391.03;;;5.20;100.00
71976;BME280;60680;52.182;5.398;2023-02-20T01:32:11;102387.59;;;5.18;100.00
71976;BME280;60680;52.182;5.398;2023-02-20T01:34:38;102380.72;;;5.17;100.00
71976;BME280;60680;52.182;5.398;2023-02-20T01:37:04;102391.03;;;5.17;100.00
71976;BME280;60680;52.182;5.398;2023-02-20T01:39:31;102387.59;;;5.20;100.00
71976;BME280;60680;52.182;5.398;2023-02-20T01:42:02;102383.28;;;5.22;100.00
71976;BME280;60680;52.182;5.398;2023-02-20T01:44:33;102378.13;;;5.22;100.00
71976;BME280;60680;52.182;5.398;2023-02-20T01:47:15;102384.13;;;5.24;100.00
71976;BME280;60680;52.182;5.398;2023-02-20T01:49:46;102371.22;;;5.24;100.00
71976;BME280;60680;52.182;5.398;2023-02-20T01:52:20;102377.25;;;5.26;100.00
71976;BME280;60680;52.182;5.398;2023-02-20T01:54:52;102380.69;;;5.26;100.00
71976;BME280;60680;52.182;5.398;2023-02-20T01:57:23;102374.66;;;5.26;100.00
71976;BME280;60680;52.182;5.398;2023-02-20T01:59:54;102379.81;;;5.30;100.00
71976;BME280;60680;52.182;5.398;2023-02-20T02:02:23;102379.81;;;5.32;100.00
71976;BME280;60680;52.182;5.398;2023-02-20T02:04:51;102364.34;;;5.27;100.00
71976;BME280;60680;52.182;5.398;2023-02-20T02:07:17;102358.34;;;5.25;100.00
71976;BME280;60680;52.182;5.398;2023-02-20T02:09:54;102350.59;;;5.24;100.00
71976;BME280;60680;52.182;5.398;2023-02-20T02:12:23;102348.88;;;5.26;100.00
71976;BME280;60680;52.182;5.398;2023-02-20T02:14:50;102351.44;;;5.26;100.00
71976;BME280;60680;52.182;5.398;2023-02-20T02:25:55;102329.94;;;5.24;100.00
71976;BME280;60680;52.182;5.398;2023-02-20T02:29:24;102332.53;;;5.24;100.00
71976;BME280;60680;52.182;5.398;2023-02-20T02:37:16;102326.50;;;5.28;100.00
71976;BME280;60680;52.182;5.398;2023-02-20T02:40:01;102310.13;;;5.32;100.00
71976;BME280;60680;52.182;5.398;2023-02-20T02:42:40;102316.09;;;5.43;100.00
71976;BME280;60680;52.182;5.398;2023-02-20T02:45:33;102308.31;;;5.51;100.00
71976;BME280;60680;52.182;5.398;2023-02-20T02:50:32;102308.22;;;5.65;100.00
71976;BME280;60680;52.182;5.398;2023-02-20T02:53:00;102309.91;;;5.69;100.00
71976;BME280;60680;52.182;5.398;2023-02-20T02:55:29;102307.31;;;5.72;100.00
71976;BME280;60680;52.182;5.398;2023-02-20T02:57:56;102303.84;;;5.76;100.00
71976;BME280;60680;52.182;5.398;2023-02-20T03:00:39;102301.25;;;5.81;100.00
71976;BME280;60680;52.182;5.398;2023-02-20T03:03:24;102306.38;;;5.85;100.00
71976;BME280;60680;52.182;5.398;2023-02-20T03:06:05;102297.72;;;5.89;100.00
71976;BME280;60680;52.182;5.398;2023-02-20T03:08:43;102318.34;;;5.92;100.00
71976;BME280;60680;52.182;5.398;2023-02-20T03:11:19;102305.47;;;5.97;100.00
71976;BME280;60680;52.182;5.398;2023-02-20T03:16:59;102314.88;;;6.01;100.00
71976;BME280;60680;52.182;5.398;2023-02-20T03:19:32;102294.22;;;6.01;100.00
71976;BME280;60680;52.182;5.398;2023-02-20T03:22:01;102300.22;;;6.05;100.00
71976;BME280;60680;52.182;5.398;2023-02-20T03:24:33;102293.31;;;6.07;100.00
71976;BME280;60680;52.182;5.398;2023-02-20T03:27:42;102288.13;;;6.10;100.00
71976;BME280;60680;52.182;5.398;2023-02-20T03:30:41;102286.41;;;6.10;100.00
71976;BME280;60680;52.182;5.398;2023-02-20T03:36:00;102288.94;;;6.13;100.00
71976;BME280;60680;52.182;5.398;2023-02-20T03:38:51;102281.16;;;6.18;100.00
71976;BME280;60680;52.182;5.398;2023-02-20T03:41:39;102283.72;;;6.20;100.00
71976;BME280;60680;52.182;5.398;2023-02-20T03:44:27;102275.97;;;6.21;100.00
71976;BME280;60680;52.182;5.398;2023-02-20T03:46:55;102284.56;;;6.23;100.00
71976;BME280;60680;52.182;5.398;2023-02-20T03:49:30;102284.56;;;6.23;100.00
71976;BME280;60680;52.182;5.398;2023-02-20T03:52:16;102279.34;;;6.26;100.00
71976;BME280;60680;52.182;5.398;2023-02-20T03:54:43;102271.59;;;6.26;100.00
71976;BME280;60680;52.182;5.398;2023-02-20T03:57:17;102273.28;;;6.29;100.00
71976;BME280;60680;52.182;5.398;2023-02-20T03:59:54;102261.22;;;6.31;100.00
71976;BME280;60680;52.182;5.398;2023-02-20T04:02:29;102256.03;;;6.32;100.00
71976;BME280;60680;52.182;5.398;2023-02-20T04:05:00;102260.34;;;6.33;100.00
71976;BME280;60680;52.182;5.398;2023-02-20T04:07:37;102256.88;;;6.35;100.00
71976;BME280;60680;52.182;5.398;2023-02-20T04:10:11;102246.53;;;6.35;100.00
71976;BME280;60680;52.182;5.398;2023-02-20T04:12:42;102262.88;;;6.38;100.00
71976;BME280;60680;52.182;5.398;2023-02-20T04:15:10;102258.56;;;6.39;100.00
71976;BME280;60680;52.182;5.398;2023-02-20T04:17:54;102262.84;;;6.41;100.00
71976;BME280;60680;52.182;5.398;2023-02-20T04:20:21;102257.69;;;6.40;100.00
71976;BME280;60680;52.182;5.398;2023-02-20T04:22:49;102266.28;;;6.42;100.00
71976;BME280;60680;52.182;5.398;2023-02-20T04:26:04;102259.34;;;6.45;100.00
71976;BME280;60680;52.182;5.398;2023-02-20T04:28:23;102260.19;;;6.46;100.00
71976;BME280;60680;52.182;5.398;2023-02-20T04:30:51;102254.16;;;6.47;100.00
71976;BME280;60680;52.182;5.398;2023-02-20T04:33:18;102255.88;;;6.48;100.00
71976;BME280;60680;52.182;5.398;2023-02-20T04:35:44;102252.44;;;6.49;100.00
71976;BME280;60680;52.182;5.398;2023-02-20T04:38:11;102239.50;;;6.49;100.00
71976;BME280;60680;52.182;5.398;2023-02-20T04:40:38;102243.78;;;6.50;100.00
71976;BME280;60680;52.182;5.398;2023-02-20T04:43:05;102254.13;;;6.51;100.00
71976;BME280;60680;52.182;5.398;2023-02-20T04:45:32;102259.28;;;6.53;100.00
71976;BME280;60680;52.182;5.398;2023-02-20T04:47:58;102257.53;;;6.55;100.00
71976;BME280;60680;52.182;5.398;2023-02-20T04:50:31;102255.75;;;6.59;100.00
71976;BME280;60680;52.182;5.398;2023-02-20T04:52:57;102256.63;;;6.59;100.00
71976;BME280;60680;52.182;5.398;2023-02-20T04:55:24;102247.13;;;6.60;100.00
71976;BME280;60680;52.182;5.398;2023-02-20T04:57:51;102255.75;;;6.60;100.00
71976;BME280;60680;52.182;5.398;2023-02-20T05:00:19;102258.31;;;6.62;100.00
71976;BME280;60680;52.182;5.398;2023-02-20T05:02:47;102249.72;;;6.61;100.00
71976;BME280;60680;52.182;5.398;2023-02-20T05:07:45;102248.81;;;6.64;100.00
71976;BME280;60680;52.182;5.398;2023-02-20T05:10:16;102247.91;;;6.66;100.00
71976;BME280;60680;52.182;5.398;2023-02-20T05:12:43;102243.63;;;6.65;100.00
71976;BME280;60680;52.182;5.398;2023-02-20T05:15:09;102246.16;;;6.68;100.00
71976;BME280;60680;52.182;5.398;2023-02-20T05:17:36;102246.13;;;6.71;100.00
71976;BME280;60680;52.182;5.398;2023-02-20T05:20:04;102245.28;;;6.71;100.00
71976;BME280;60680;52.182;5.398;2023-02-20T05:22:31;102236.66;;;6.70;100.00
71976;BME280;60680;52.182;5.398;2023-02-20T05:24:58;102247.84;;;6.72;100.00
71976;BME280;60680;52.182;5.398;2023-02-20T05:27:27;102236.59;;;6.75;100.00
71976;BME280;60680;52.182;5.398;2023-02-20T05:29:56;102237.44;;;6.77;100.00
71976;BME280;60680;52.182;5.398;2023-02-20T05:32:24;102236.59;;;6.78;100.00
71976;BME280;60680;52.182;5.398;2023-02-20T05:34:51;102244.28;;;6.81;100.00
71976;BME280;60680;52.182;5.398;2023-02-20T05:37:19;102247.78;;;6.79;100.00
71976;BME280;60680;52.182;5.398;2023-02-20T05:39:46;102235.69;;;6.81;100.00
71976;BME280;60680;52.182;5.398;2023-02-20T05:42:13;102243.44;;;6.82;100.00
71976;BME280;60680;52.182;5.398;2023-02-20T05:44:40;102239.09;;;6.83;100.00
71976;BME280;60680;52.182;5.398;2023-02-20T05:47:07;102235.63;;;6.84;100.00
71976;BME280;60680;52.182;5.398;2023-02-20T05:49:34;102235.63;;;6.87;100.00
71976;BME280;60680;52.182;5.398;2023-02-20T05:52:02;102242.47;;;6.91;100.00
71976;BME280;60680;52.182;5.398;2023-02-20T05:54:29;102243.31;;;6.93;100.00
71976;BME280;60680;52.182;5.398;2023-02-20T05:56:55;102242.41;;;6.94;100.00
71976;BME280;60680;52.182;5.398;2023-02-20T05:59:22;102238.97;;;6.95;100.00
71976;BME280;60680;52.182;5.398;2023-02-20T06:01:49;102230.31;;;6.94;100.00
71976;BME280;60680;52.182;5.398;2023-02-20T06:04:20;102224.28;;;6.96;100.00
71976;BME280;60680;52.182;5.398;2023-02-20T06:06:47;102226.84;;;6.97;100.00
71976;BME280;60680;52.182;5.398;2023-02-20T06:09:13;102226.81;;;6.99;100.00
71976;BME280;60680;52.182;5.398;2023-02-20T06:11:54;102218.19;;;7.00;100.00
71976;BME280;60680;52.182;5.398;2023-02-20T06:14:23;102234.63;;;6.97;100.00
71976;BME280;60680;52.182;5.398;2023-02-20T06:16:50;102225.09;;;6.99;100.00
71976;BME280;60680;52.182;5.398;2023-02-20T06:19:18;102235.47;;;6.99;100.00
71976;BME280;60680;52.182;5.398;2023-02-20T06:21:49;102235.47;;;6.99;100.00
71976;BME280;60680;52.182;5.398;2023-02-20T06:24:16;102231.97;;;7.00;100.00
71976;BME280;60680;52.182;5.398;2023-02-20T06:26:46;102230.25;;;7.01;100.00
71976;BME280;60680;52.182;5.398;2023-02-20T06:29:14;102227.66;;;7.01;100.00
71976;BME280;60680;52.182;5.398;2023-02-20T06:31:41;102240.59;;;7.02;100.00
71976;BME280;60680;52.182;5.398;2023-02-20T06:34:13;102229.34;;;7.03;100.00
71976;BME280;60680;52.182;5.398;2023-02-20T06:36:41;102231.94;;;7.03;100.00
71976;BME280;60680;52.182;5.398;2023-02-20T06:39:10;102229.31;;;7.05;100.00
71976;BME280;60680;52.182;5.398;2023-02-20T06:41:36;102230.19;;;7.05;100.00
71976;BME280;60680;52.182;5.398;2023-02-20T06:44:03;102230.19;;;7.05;100.00
71976;BME280;60680;52.182;5.398;2023-02-20T06:46:30;102222.41;;;7.05;100.00
71976;BME280;60680;52.182;5.398;2023-02-20T06:48:58;102225.91;;;7.04;100.00
71976;BME280;60680;52.182;5.398;2023-02-20T06:51:28;102231.91;;;7.06;100.00
71976;BME280;60680;52.182;5.398;2023-02-20T06:53:55;102221.53;;;7.08;100.00
71976;BME280;60680;52.182;5.398;2023-02-20T06:56:25;102222.38;;;7.08;100.00
71976;BME280;60680;52.182;5.398;2023-02-20T06:58:53;102231.00;;;7.09;100.00
71976;BME280;60680;52.182;5.398;2023-02-20T07:01:22;102231.84;;;7.09;100.00
71976;BME280;60680;52.182;5.398;2023-02-20T07:03:49;102231.00;;;7.10;100.00
71976;BME280;60680;52.182;5.398;2023-02-20T07:06:16;102221.50;;;7.11;100.00
71976;BME280;60680;52.182;5.398;2023-02-20T07:08:42;102233.56;;;7.12;100.00
71976;BME280;60680;52.182;5.398;2023-02-20T07:11:09;102230.94;;;7.13;100.00
71976;BME280;60680;52.182;5.398;2023-02-20T07:13:36;102242.13;;;7.15;100.00
71976;BME280;60680;52.182;5.398;2023-02-20T07:16:03;102246.44;;;7.17;100.00
71976;BME280;60680;52.182;5.398;2023-02-20T07:18:29;102242.97;;;7.18;100.00
71976;BME280;60680;52.182;5.398;2023-02-20T07:20:56;102236.03;;;7.21;100.00
71976;BME280;60680;52.182;5.398;2023-02-20T07:23:23;102244.63;;;7.22;100.00
71976;BME280;60680;52.182;5.398;2023-02-20T07:25:49;102242.03;;;7.23;100.00
71976;BME280;60680;52.182;5.398;2023-02-20T07:28:16;102262.72;;;7.25;100.00
71976;BME280;60680;52.182;5.398;2023-02-20T07:30:44;102248.91;;;7.26;100.00
71976;BME280;60680;52.182;5.398;2023-02-20T07:33:12;102248.00;;;7.28;100.00
71976;BME280;60680;52.182;5.398;2023-02-20T07:35:38;102249.72;;;7.29;100.00
71976;BME280;60680;52.182;5.398;2023-02-20T07:38:05;102255.72;;;7.31;100.00
71976;BME280;60680;52.182;5.398;2023-02-20T07:40:32;102258.28;;;7.33;100.00
71976;BME280;60680;52.182;5.398;2023-02-20T07:42:59;102250.50;;;7.34;100.00
71976;BME280;60680;52.182;5.398;2023-02-20T07:45:26;102255.66;;;7.38;100.00
71976;BME280;60680;52.182;5.398;2023-02-20T07:47:53;102253.91;;;7.40;100.00
71976;BME280;60680;52.182;5.398;2023-02-20T07:50:19;102255.59;;;7.41;100.00
71976;BME280;60680;52.182;5.398;2023-02-20T07:52:46;102248.66;;;7.44;100.00
71976;BME280;60680;52.182;5.398;2023-02-20T07:55:14;102252.06;;;7.46;100.00
71976;BME280;60680;52.182;5.398;2023-02-20T07:57:42;102251.16;;;7.49;100.00
71976;BME280;60680;52.182;5.398;2023-02-20T08:00:16;102245.88;;;7.55;100.00
71976;BME280;60680;52.182;5.398;2023-02-20T08:02:43;102231.13;;;7.59;100.00
71976;BME280;60680;52.182;5.398;2023-02-20T08:05:10;102241.47;;;7.62;100.00
71976;BME280;60680;52.182;5.398;2023-02-20T08:07:36;102238.78;;;7.68;100.00
71976;BME280;60680;52.182;5.398;2023-02-20T08:10:04;102214.53;;;7.72;100.00
71976;BME280;60680;52.182;5.398;2023-02-20T08:12:31;102243.88;;;7.74;100.00
71976;BME280;60680;52.182;5.398;2023-02-20T08:14:57;102242.97;;;7.76;100.00
71976;BME280;60680;52.182;5.398;2023-02-20T08:17:24;102240.34;;;7.78;100.00
71976;BME280;60680;52.182;5.398;2023-02-20T08:20:02;102238.59;;;7.79;100.00
71976;BME280;60680;52.182;5.398;2023-02-20T08:22:29;102242.88;;;7.81;100.00
71976;BME280;60680;52.182;5.398;2023-02-20T08:25:07;102248.03;;;7.84;100.00
71976;BME280;60680;52.182;5.398;2023-02-20T08:27:33;102246.31;;;7.83;100.00
71976;BME280;60680;52.182;5.398;2023-02-20T08:30:07;102243.72;;;7.83;100.00
71976;BME280;60680;52.182;5.398;2023-02-20T08:32:35;102245.44;;;7.84;100.00
71976;BME280;60680;52.182;5.398;2023-02-20T08:35:02;102245.44;;;7.84;100.00
71976;BME280;60680;52.182;5.398;2023-02-20T08:37:28;102242.78;;;7.87;100.00
71976;BME280;60680;52.182;5.398;2023-02-20T08:39:54;102242.78;;;7.87;100.00
71976;BME280;60680;52.182;5.398;2023-02-20T08:42:21;102248.81;;;7.88;100.00
71976;BME280;60680;52.182;5.398;2023-02-20T08:44:47;102244.47;;;7.88;100.00
71976;BME280;60680;52.182;5.398;2023-02-20T08:47:18;102246.22;;;7.89;100.00
71976;BME280;60680;52.182;5.398;2023-02-20T08:49:46;102241.88;;;7.88;100.00
71976;BME280;60680;52.182;5.398;2023-02-20T08:52:13;102244.47;;;7.90;100.00
71976;BME280;60680;52.182;5.398;2023-02-20T08:54:44;102237.53;;;7.92;100.00
71976;BME280;60680;52.182;5.398;2023-02-20T08:57:15;102238.38;;;7.92;100.00
71976;BME280;60680;52.182;5.398;2023-02-20T08:59:42;102247.88;;;7.93;100.00
71976;BME280;60680;52.182;5.398;2023-02-20T09:02:18;102250.44;;;7.95;100.00
71976;BME280;60680;52.182;5.398;2023-02-20T09:04:45;102241.78;;;7.94;100.00
71976;BME280;60680;52.182;5.398;2023-02-20T09:07:12;102249.63;;;7.93;100.00
71976;BME280;60680;52.182;5.398;2023-02-20T09:09:39;102247.88;;;7.93;100.00
71976;BME280;60680;52.182;5.398;2023-02-20T09:12:07;102249.63;;;7.93;100.00
71976;BME280;60680;52.182;5.398;2023-02-20T09:14:34;102249.63;;;7.91;100.00
71976;BME280;60680;52.182;5.398;2023-02-20T09:17:00;102256.50;;;7.92;100.00
71976;BME280;60680;52.182;5.398;2023-02-20T09:19:27;102247.03;;;7.93;100.00
71976;BME280;60680;52.182;5.398;2023-02-20T09:21:54;102238.34;;;7.94;100.00
71976;BME280;60680;52.182;5.398;2023-02-20T09:24:20;102242.69;;;7.93;100.00
71976;BME280;60680;52.182;5.398;2023-02-20T09:26:47;102233.16;;;7.95;100.00
71976;BME280;60680;52.182;5.398;2023-02-20T09:29:14;102241.75;;;7.99;100.00
71976;BME280;60680;52.182;5.398;2023-02-20T09:31:40;102235.63;;;8.02;100.00
71976;BME280;60680;52.182;5.398;2023-02-20T09:34:08;102237.25;;;8.07;100.00
71976;BME280;60680;52.182;5.398;2023-02-20T09:36:34;102225.06;;;8.12;100.00
71976;BME280;60680;52.182;5.398;2023-02-20T09:39:00;102218.91;;;8.18;100.00
71976;BME280;60680;52.182;5.398;2023-02-20T09:46:49;102224.91;;;8.22;100.00
71976;BME280;60680;52.182;5.398;2023-02-20T09:49:23;102221.47;;;8.21;100.00
71976;BME280;60680;52.182;5.398;2023-02-20T09:51:55;102215.34;;;8.25;100.00
71976;BME280;60680;52.182;5.398;2023-02-20T09:54:41;102232.56;;;8.28;100.00
71976;BME280;60680;52.182;5.398;2023-02-20T09:57:17;102212.66;;;8.28;100.00
71976;BME280;60680;52.182;5.398;2023-02-20T09:59:53;102229.88;;;8.34;99.87
71976;BME280;60680;52.182;5.398;2023-02-20T10:02:29;102226.44;;;8.33;100.00
71976;BME280;60680;52.182;5.398;2023-02-20T10:05:05;102226.38;;;8.35;99.89
71976;BME280;60680;52.182;5.398;2023-02-20T10:07:36;102230.63;;;8.39;99.62
71976;BME280;60680;52.182;5.398;2023-02-20T10:15:49;102227.94;;;8.47;98.75
71976;BME280;60680;52.182;5.398;2023-02-20T10:24:26;102225.34;;;8.47;98.52
71976;BME280;60680;52.182;5.398;2023-02-20T10:27:24;102235.69;;;8.48;98.46
71976;BME280;60680;52.182;5.398;2023-02-20T10:29:52;102227.94;;;8.47;98.92
71976;BME280;60680;52.182;5.398;2023-02-20T10:32:28;102206.25;;;8.49;98.49
71976;BME280;60680;52.182;5.398;2023-02-20T10:35:02;102206.22;;;8.52;98.42
71976;BME280;60680;52.182;5.398;2023-02-20T10:37:39;102234.69;;;8.55;98.04
71976;BME280;60680;52.182;5.398;2023-02-20T10:40:27;102238.06;;;8.59;98.30
71976;BME280;60680;52.182;5.398;2023-02-20T10:43:05;102188.78;;;8.59;97.47
71976;BME280;60680;52.182;5.398;2023-02-20T10:48:09;102212.06;;;8.62;97.94
71976;BME280;60680;52.182;5.398;2023-02-20T10:50:49;102206.72;;;8.70;97.83
71976;BME280;60680;52.182;5.398;2023-02-20T10:53:23;102198.03;;;8.71;97.61
71976;BME280;60680;52.182;5.398;2023-02-20T10:58:39;102214.44;;;8.73;97.72
71976;BME280;60680;52.182;5.398;2023-02-20T11:01:12;102212.72;;;8.72;97.61
71976;BME280;60680;52.182;5.398;2023-02-20T11:03:54;102214.47;;;8.71;97.82
71976;BME280;60680;52.182;5.398;2023-02-20T11:06:29;102222.28;;;8.71;97.09
71976;BME280;60680;52.182;5.398;2023-02-20T11:08:56;102221.44;;;8.69;97.57
71976;BME280;60680;52.182;5.398;2023-02-20T11:11:35;102217.03;;;8.73;96.73
71976;BME280;60680;52.182;5.398;2023-02-20T11:14:19;102187.59;;;8.74;97.30
71976;BME280;60680;52.182;5.398;2023-02-20T11:17:04;102181.56;;;8.73;96.82
71976;BME280;60680;52.182;5.398;2023-02-20T11:22:04;102203.06;;;8.80;96.85
71976;BME280;60680;52.182;5.398;2023-02-20T11:24:36;102191.78;;;8.80;96.55
71976;BME280;60680;52.182;5.398;2023-02-20T11:27:14;102184.91;;;8.78;96.06
71976;BME280;60680;52.182;5.398;2023-02-20T11:29:50;102176.22;;;8.80;96.48
71976;BME280;60680;52.182;5.398;2023-02-20T11:32:35;102192.63;;;8.82;95.92
71976;BME280;60680;52.182;5.398;2023-02-20T11:37:40;102207.34;;;8.81;95.94
71976;BME280;60680;52.182;5.398;2023-02-20T11:40:26;102195.19;;;8.83;96.47
71976;BME280;60680;52.182;5.398;2023-02-20T11:42:54;102184.06;;;8.78;96.47
71976;BME280;60680;52.182;5.398;2023-02-20T11:45:26;102202.16;;;8.81;96.14
71976;BME280;60680;52.182;5.398;2023-02-20T11:48:06;102209.00;;;8.84;96.58
71976;BME280;60680;52.182;5.398;2023-02-20T11:50:51;102199.53;;;8.83;96.17
71976;BME280;60680;52.182;5.398;2023-02-20T11:56:11;102193.50;;;8.81;96.01
71976;BME280;60680;52.182;5.398;2023-02-20T11:58:39;102189.28;;;8.76;96.02
71976;BME280;60680;52.182;5.398;2023-02-20T12:01:07;102203.91;;;8.79;96.62
71976;BME280;60680;52.182;5.398;2023-02-20T12:03:55;102210.84;;;8.80;96.13
71976;BME280;60680;52.182;5.398;2023-02-20T12:09:01;102209.06;;;8.82;96.38
71976;BME280;60680;52.182;5.398;2023-02-20T12:11:29;102209.91;;;8.83;96.78
71976;BME280;60680;52.182;5.398;2023-02-20T12:13:57;102204.75;;;8.81;96.42
71976;BME280;60680;52.182;5.398;2023-02-20T12:16:34;102196.03;;;8.84;96.09
71976;BME280;60680;52.182;5.398;2023-02-20T12:19:12;102211.53;;;8.88;95.82
71976;BME280;60680;52.182;5.398;2023-02-20T12:35:33;102187.81;;;9.04;95.86
71976;BME280;60680;52.182;5.398;2023-02-20T12:46:23;102182.53;;;9.08;94.84
71976;BME280;60680;52.182;5.398;2023-02-20T12:49:25;102169.41;;;9.14;94.77
71976;BME280;60680;52.182;5.398;2023-02-20T12:52:32;102178.84;;;9.18;95.33
71976;BME280;60680;52.182;5.398;2023-02-20T13:00:37;102171.88;;;9.21;95.38
71976;BME280;60680;52.182;5.398;2023-02-20T13:03:10;102155.34;;;9.23;94.72
71976;BME280;60680;52.182;5.398;2023-02-20T13:05:42;102166.56;;;9.25;94.06
71976;BME280;60680;52.182;5.398;2023-02-20T13:08:14;102174.25;;;9.28;94.89
71976;BME280;60680;52.182;5.398;2023-02-20T13:10:58;102174.25;;;9.30;95.05
71976;BME280;60680;52.182;5.398;2023-02-20T13:13:31;102166.41;;;9.31;94.74
71976;BME280;60680;52.182;5.398;2023-02-20T13:16:33;102157.72;;;9.32;94.80
71976;BME280;60680;52.182;5.398;2023-02-20T13:19:09;102155.94;;;9.34;94.53
71976;BME280;60680;52.182;5.398;2023-02-20T13:21:40;102147.19;;;9.38;94.51
71976;BME280;60680;52.182;5.398;2023-02-20T13:26:56;102137.50;;;9.45;94.36
71976;BME280;60680;52.182;5.398;2023-02-20T13:29:27;102140.91;;;9.47;93.23
71976;BME280;60680;52.182;5.398;2023-02-20T13:32:19;102140.91;;;9.47;93.76
71976;BME280;60680;52.182;5.398;2023-02-20T13:34:47;102131.34;;;9.48;93.62
71976;BME280;60680;52.182;5.398;2023-02-20T13:46:07;102142.63;;;9.48;93.67
71976;BME280;60680;52.182;5.398;2023-02-20T13:48:51;102139.28;;;9.43;93.75
71976;BME280;60680;52.182;5.398;2023-02-20T13:56:25;102123.94;;;9.32;94.09
71976;BME280;60680;52.182;5.398;2023-02-20T13:58:57;102124.84;;;9.31;93.67
71976;BME280;60680;52.182;5.398;2023-02-20T14:01:24;102126.63;;;9.29;93.93
71976;BME280;60680;52.182;5.398;2023-02-20T14:04:03;102125.69;;;9.32;94.44
71976;BME280;60680;52.182;5.398;2023-02-20T14:06:29;102120.50;;;9.32;93.83
71976;BME280;60680;52.182;5.398;2023-02-20T14:09:10;102114.44;;;9.33;94.32
71976;BME280;60680;52.182;5.398;2023-02-20T14:11:41;102103.22;;;9.31;94.08
71976;BME280;60680;52.182;5.398;2023-02-20T14:14:28;102103.25;;;9.29;94.06
71976;BME280;60680;52.182;5.398;2023-02-20T14:17:10;102100.63;;;9.31;94.26
71976;BME280;60680;52.182;5.398;2023-02-20T14:19:43;102098.78;;;9.34;93.65
71976;BME280;60680;52.182;5.398;2023-02-20T14:27:45;102095.63;;;9.23;94.25
71976;BME280;60680;52.182;5.398;2023-02-20T14:30:16;102097.41;;;9.19;93.83
71976;BME280;60680;52.182;5.398;2023-02-20T14:32:49;102095.72;;;9.18;94.12
71976;BME280;60680;52.182;5.398;2023-02-20T14:38:09;102084.56;;;9.15;93.82
71976;BME280;60680;52.182;5.398;2023-02-20T14:40:43;102094.00;;;9.17;94.48
71976;BME280;60680;52.182;5.398;2023-02-20T14:43:19;102098.31;;;9.18;94.63
71976;BME280;60680;52.182;5.398;2023-02-20T14:45:57;102103.53;;;9.18;94.68
71976;BME280;60680;52.182;5.398;2023-02-20T14:48:30;102106.06;;;9.20;93.94
71976;BME280;60680;52.182;5.398;2023-02-20T14:51:21;102111.25;;;9.20;94.11
71976;BME280;60680;52.182;5.398;2023-02-20T14:54:04;102113.91;;;9.18;94.11
71976;BME280;60680;52.182;5.398;2023-02-20T14:56:36;102110.50;;;9.16;94.12
71976;BME280;60680;52.182;5.398;2023-02-20T15:01:52;102114.03;;;9.14;94.16
71976;BME280;60680;52.182;5.398;2023-02-20T15:04:22;102115.81;;;9.12;93.73
71976;BME280;60680;52.182;5.398;2023-02-20T15:06:51;102111.34;;;9.17;94.35
71976;BME280;60680;52.182;5.398;2023-02-20T15:09:19;102102.69;;;9.18;94.43